sensor_id;sensor_type;location;lat;lon;timestamp;P1;P2;P0
85896;PMS5003;76442;52.412;16.940;2024-02-21T00:10:09;20.20136375567574;7.904881469612246;3.513280653160998
85896;PMS5003;76442;52.412;16.940;2024-02-21T00:25:09;11.39567592721281;7.889314103455022;2.629771367818341
85896;PMS5003;76442;52.412;16.940;2024-02-21T00:40:09;10.521865448889251;7.014576965926167;2.630466362222313
85896;PMS5003;76442;52.412;16.940;2024-02-21T00:55:09;22.57824231606817;13.025909028500868;3.4735757409335646
85896;PMS5003;76442;52.412;16.940;2024-02-21T01:10:09;16.459903675865306;12.994660796735767;3.465242879129538
85896;PMS5003;76442;52.412;16.940;2024-02-21T01:25:09;10.40900243777648;6.939334958517653;3.4696674792588267
85896;PMS5003;76442;52.412;16.940;2024-02-21T01:40:09;11.26524323818456;7.799014549512387;2.599671516504129
85896;PMS5003;76442;52.412;16.940;2024-02-21T02:00:10;12.936642108724387;9.486870879731217;1.724885614496585
85896;PMS5003;76442;52.412;16.940;2024-02-21T02:15:10;16.31606174108644;7.728660824725155;2.576220274908385
85896;PMS5003;76442;52.412;16.940;2024-02-21T02:30:09;13.68556204248957;11.119519159522776;6.842781021244785
85896;PMS5003;76442;52.412;16.940;2024-02-21T02:45:09;11.086700113640932;7.675407770982183;3.411292342658748
85896;PMS5003;76442;52.412;16.940;2024-02-21T03:00:10;11.090178840837455;7.677816120579776;4.265453400322098
85896;PMS5003;76442;52.412;16.940;2024-02-21T03:20:09;9.333284583410755;6.78784333338964;3.39392166669482
85896;PMS5003;76442;52.412;16.940;2024-02-21T03:35:09;11.86132842322341;9.319615189675536;2.5417132335478736
85896;PMS5003;76442;52.412;16.940;2024-02-21T03:50:09;11.033818545714281;7.638797454725272;4.243776363736262
85896;PMS5003;76442;52.412;16.940;2024-02-21T04:05:09;8.438763554597491;5.063258132758495;2.5316290663792476
85896;PMS5003;76442;52.412;16.940;2024-02-21T04:20:09;9.305839719100048;6.767883432072763;2.537956287027286
85896;PMS5003;76442;52.412;16.940;2024-02-21T04:35:09;11.930130301953328;9.373673808677614;2.556456493275713
85896;PMS5003;76442;52.412;16.940;2024-02-21T04:50:09;24.797427967813455;12.826255845420754;5.130502338168301
85896;PMS5003;76442;52.412;16.940;2024-02-21T05:05:09;12.810357093151666;10.248285674521332;4.270119031050555
85896;PMS5003;76442;52.412;16.940;2024-02-21T05:20:09;11.129778229220028;7.705231081767711;4.2806839343153955
85896;PMS5003;76442;52.412;16.940;2024-02-21T05:35:09;14.4751337935278;11.069219959756554;5.1088707506568705
85896;PMS5003;76442;52.412;16.940;2024-02-21T05:50:09;11.90932819373315;8.50666299552368;4.25333149776184
85896;PMS5003;76442;52.412;16.940;2024-02-21T06:05:10;11.926362246656254;8.51883017618304;4.25941508809152
85896;PMS5003;76442;52.412;16.940;2024-02-21T06:20:09;14.531929631691453;11.112652071293462;4.274096950497486
85896;PMS5003;76442;52.412;16.940;2024-02-21T06:35:10;19.672995436078757;17.106952553111963;4.276738138277991
85896;PMS5003;76442;52.412;16.940;2024-02-21T06:50:09;18.01723238938632;9.437597918249978;3.431853788454537
85896;PMS5003;76442;52.412;16.940;2024-02-21T07:05:10;18.900794774576177;12.88690552812012;5.154762211248048
85896;PMS5003;76442;52.412;16.940;2024-02-21T07:20:09;18.995893693491837;15.542094840129684;6.907597706724304
85896;PMS5003;76442;52.412;16.940;2024-02-21T07:35:09;13.670753348845132;10.253065011633849;3.417688337211283
85896;PMS5003;76442;52.412;16.940;2024-02-21T07:50:09;13.837187543844886;10.377890657883665;5.188945328941832
85896;PMS5003;76442;52.412;16.940;2024-02-21T08:05:09;16.604155601676904;13.108543896060715;6.117320484828333
85896;PMS5003;76442;52.412;16.940;2024-02-21T08:35:09;14.204778584194434;10.653583938145825;5.326791969072913
85896;PMS5003;76442;52.412;16.940;2024-02-21T08:50:09;13.414309750735503;9.837160483872703;6.260011217009902
85896;PMS5003;76442;52.412;16.940;2024-02-21T09:05:09;15.16718052235329;11.598432164152516;4.460935447750968
85896;PMS5003;76442;52.412;16.940;2024-02-21T09:20:09;14.325244721282486;11.63926133604202;6.267294565561087
85896;PMS5003;76442;52.412;16.940;2024-02-21T09:35:09;13.526115407592767;10.820892326074214;5.410446163037107
85896;PMS5003;76442;52.412;16.940;2024-02-21T09:50:09;23.310769241720852;15.241656811894403;7.172544382067954
85896;PMS5003;76442;52.412;16.940;2024-02-21T10:05:09;17.95598715961325;14.3647897276906;7.1823948638453
85896;PMS5003;76442;52.412;16.940;2024-02-21T10:20:09;20.64703299888483;17.056244651252687;8.976970869080361
85896;PMS5003;76442;52.412;16.940;2024-02-21T10:40:09;19.97219303505147;16.340885210496655;9.986096517525734
85896;PMS5003;76442;52.412;16.940;2024-02-21T10:55:09;14.798412149909366;11.098809112432024;6.474305315585347
85896;PMS5003;76442;52.412;16.940;2024-02-21T11:10:09;20.590244280170033;14.974723112850933;6.551441361872283
85896;PMS5003;76442;52.412;16.940;2024-02-21T11:25:09;21.638046696298833;16.93412350145126;9.407846389695145
85896;PMS5003;76442;52.412;16.940;2024-02-21T11:40:09;14.164046469463107;9.442697646308739;4.721348823154369
85896;PMS5003;76442;52.412;16.940;2024-02-21T11:55:09;25.4676714175422;20.7514359698492;8.4892238058474
85896;PMS5003;76442;52.412;16.940;2024-02-21T12:10:09;22.7055598417932;17.97523487475295;9.4606499340805
85896;PMS5003;76442;52.412;16.940;2024-02-21T12:25:09;19.95442993587773;15.203375189240175;6.651476645292576
85896;PMS5003;76442;52.412;16.940;2024-02-21T12:40:09;17.133716953122196;12.374351132810476;5.711238984374066
85896;PMS5003;76442;52.412;16.940;2024-02-21T13:00:09;28.576463746668853;18.09842703955694;5.715292749333771
85896;PMS5003;76442;52.412;16.940;2024-02-21T13:15:10;26.620761783633068;17.113346860906972;6.655190445908267
85896;PMS5003;76442;52.412;16.940;2024-02-21T13:30:10;23.922918670570898;19.13833493645672;9.56916746822836
85896;PMS5003;76442;52.412;16.940;2024-02-21T13:45:09;20.07831620090917;15.297764724502224;7.648882362251112
85896;PMS5003;76442;52.412;16.940;2024-02-21T14:00:10;20.128899560991584;15.336304427422158;7.668152213711079
85896;PMS5003;76442;52.412;16.940;2024-02-21T14:15:09;23.897243321902145;19.117794657521717;8.603007595884772
85896;PMS5003;76442;52.412;16.940;2024-02-21T14:30:09;20.04266136467371;14.31618668905265;9.544124459368433
85896;PMS5003;76442;52.412;16.940;2024-02-21T14:45:09;22.951934181237995;17.213950635928498;8.606975317964249
85896;PMS5003;76442;52.412;16.940;2024-02-21T15:00:09;20.08448323529699;15.302463417369134;8.607635672270138
85896;PMS5003;76442;52.412;16.940;2024-02-21T15:15:09;26.803899900032786;19.145642785737703;11.487385671442622
85896;PMS5003;76442;52.412;16.940;2024-02-21T15:30:09;28.729404030001994;23.94117002500166;10.534114811000732
85896;PMS5003;76442;52.412;16.940;2024-02-21T15:45:09;23.02182508070964;18.225611522228466;9.59242711696235
85896;PMS5003;76442;52.412;16.940;2024-02-21T16:05:09;26.84462013697734;20.133465102733005;8.628627901171289
85896;PMS5003;76442;52.412;16.940;2024-02-21T16:20:09;39.22158008659134;29.655341041081254;14.349358568265123
85896;PMS5003;76442;52.412;16.940;2024-02-21T16:35:09;31.46862816937563;22.886275032273186;11.443137516136593
85896;PMS5003;76442;52.412;16.940;2024-02-21T16:50:09;29.519713523320345;24.75846940665577;11.426985879994971
85896;PMS5003;76442;52.412;16.940;2024-02-21T17:05:09;33.362766938077776;28.596657375495237;14.298328687747619
85896;PMS5003;76442;52.412;16.940;2024-02-21T17:20:09;28.533585063021217;23.777987552517683;9.511195021007072
85896;PMS5003;76442;52.412;16.940;2024-02-21T17:35:10;39.988143425694304;32.37135420175253;17.137775753868986
85896;PMS5003;76442;52.412;16.940;2024-02-21T17:50:10;36.11378228635774;28.51088075238769;12.354714992701332
85896;PMS5003;76442;52.412;16.940;2024-02-21T18:05:10;24.67578896702415;19.930444934904123;11.38882567708807
85896;PMS5003;76442;52.412;16.940;2024-02-21T18:20:10;31.339401938775264;25.64132885899794;11.396146159554641
85896;PMS5003;76442;52.412;16.940;2024-02-21T18:35:10;29.418764600701543;21.826825348907597;10.438916471216677
85896;PMS5003;76442;52.412;16.940;2024-02-21T18:50:09;28.449100488344527;23.707583740287106;11.37964019533781
85896;PMS5003;76442;52.412;16.940;2024-02-21T19:05:09;27.417835230914818;21.74517966589796;12.290753724203194
85896;PMS5003;76442;52.412;16.940;2024-02-21T19:25:09;30.153532388085093;25.442042952446798;13.192170419787228
85896;PMS5003;76442;52.412;16.940;2024-02-21T19:40:09;23.581177238465;18.864941790772;9.432470895386
85896;PMS5003;76442;52.412;16.940;2024-02-21T19:55:09;23.74006760112906;18.992054080903245;7.596821632361299
85896;PMS5003;76442;52.412;16.940;2024-02-21T20:10:09;31.384450786176686;23.776099080436882;9.510439632174753
85896;PMS5003;76442;52.412;16.940;2024-02-21T20:25:09;33.16640789321606;28.428349622756624;15.1617864654702
85896;PMS5003;76442;52.412;16.940;2024-02-21T20:40:09;25.43346992980986;19.781587723185446;10.36178404547809
85896;PMS5003;76442;52.412;16.940;2024-02-21T21:00:09;26.935004191956022;22.291037951963602;13.931898719977251
85896;PMS5003;76442;52.412;16.940;2024-02-21T21:15:09;29.483746182339956;19.348708432160596;9.213670681981236
85896;PMS5003;76442;52.412;16.940;2024-02-21T21:30:09;27.469588705223686;22.89132392101974;10.987835482089475
85896;PMS5003;76442;52.412;16.940;2024-02-21T21:45:09;25.462172400295987;20.91535590024313;10.00299630011628
85896;PMS5003;76442;52.412;16.940;2024-02-21T22:00:09;22.676340909878174;18.14107272790254;10.884643636741524
85896;PMS5003;76442;52.412;16.940;2024-02-21T22:15:09;19.851468538883033;15.339771143682345;6.316376353280965
85896;PMS5003;76442;52.412;16.940;2024-02-21T22:30:09;22.568432308696188;18.05474584695695;9.930110215826323
85896;PMS5003;76442;52.412;16.940;2024-02-21T22:45:09;36.496869217994096;26.70502625706885;8.011507877120655
85896;PMS5003;76442;52.412;16.940;2024-02-21T23:00:09;31.738119077582933;24.685203727008947;12.342601863504473
85896;PMS5003;76442;52.412;16.940;2024-02-21T23:15:09;36.807055709097;31.54890489351172;13.145377038963215
85896;PMS5003;76442;52.412;16.940;2024-02-21T23:30:09;29.059766123965545;22.014974336337534;14.089583575256022
85896;PMS5003;76442;52.412;16.940;2024-02-21T23:50:09;26.276805790874825;21.897338159062354;13.138402895437412
